Time;durP1;ratioP1;P1;durP2;ratioP2;P2;SDS_P1;SDS_P2;PMS_P1;PMS_P2;Temp;Humidity;BMP_temperature;BMP_pressure;BME280_temperature;BME280_humidity;BME280_pressure;Samples;Min_cycle;Max_cycle;Signal;HPM_P1;HPM_P2
2022/07/29 00:01:23;;;;;;;1.75;1.42;;;13.60;99.90;;;;;;5054828;28;20045;-28
2022/07/29 00:03:49;;;;;;;3.67;1.42;;;13.60;99.90;;;;;;5053986;28;20045;-29
2022/07/29 00:06:15;;;;;;;5.82;1.27;;;13.60;99.90;;;;;;5056819;28;20134;-28
2022/07/29 00:08:41;;;;;;;3.05;1.30;;;13.60;99.90;;;;;;5056604;28;20396;-29
2022/07/29 00:11:07;;;;;;;4.10;1.80;;;13.60;99.90;;;;;;5054836;28;20143;-28
2022/07/29 00:13:32;;;;;;;4.93;1.50;;;13.60;99.90;;;;;;5056431;28;20037;-28
2022/07/29 00:15:58;;;;;;;3.17;1.92;;;13.60;99.90;;;;;;5055240;28;20052;-28
2022/07/29 00:18:24;;;;;;;5.00;1.42;;;13.60;99.90;;;;;;5053359;28;20056;-28
2022/07/29 00:20:50;;;;;;;3.22;1.17;;;13.60;99.90;;;;;;5055290;28;20049;-29
2022/07/29 00:23:15;;;;;;;2.75;1.20;;;13.60;99.90;;;;;;5055859;28;20048;-28
2022/07/29 00:25:41;;;;;;;5.35;1.58;;;13.70;99.90;;;;;;5054315;28;20049;-29
2022/07/29 00:28:07;;;;;;;3.92;1.42;;;13.70;99.90;;;;;;5055091;28;20445;-28
2022/07/29 00:30:32;;;;;;;2.45;1.23;;;13.70;99.90;;;;;;5054028;28;20049;-28
2022/07/29 00:32:58;;;;;;;3.15;1.55;;;13.80;99.90;;;;;;5055478;28;20048;-29
2022/07/29 00:38:08;;;;;;;4.95;1.48;;;13.80;99.90;;;;;;5055485;28;20053;-28
2022/07/29 00:40:34;;;;;;;3.95;1.48;;;13.80;99.90;;;;;;5054942;28;20441;-29
2022/07/29 00:42:59;;;;;;;3.17;1.58;;;13.80;99.90;;;;;;5053631;28;20092;-28
2022/07/29 00:45:25;;;;;;;5.72;1.42;;;13.90;99.90;;;;;;5054869;28;20053;-29
2022/07/29 00:47:51;;;;;;;6.32;2.00;;;13.90;99.90;;;;;;5054561;28;20049;-28
2022/07/29 00:50:17;;;;;;;6.45;1.60;;;13.90;99.90;;;;;;5055074;28;20049;-28
2022/07/29 00:52:43;;;;;;;4.40;1.63;;;13.90;99.90;;;;;;5055402;28;20044;-28
2022/07/29 00:55:11;;;;;;;4.72;1.75;;;13.90;99.90;;;;;;5052622;28;20491;-29
2022/07/29 00:57:38;;;;;;;3.40;1.63;;;14.00;1.00;;;;;;5054632;28;20130;-29
2022/07/29 01:00:06;;;;;;;5.45;1.50;;;14.00;1.00;;;;;;5055083;28;20045;-28
2022/07/29 01:02:32;;;;;;;5.28;1.58;;;14.00;1.00;;;;;;5054507;28;20514;-29
2022/07/29 01:04:58;;;;;;;4.70;1.70;;;14.00;1.00;;;;;;5052883;28;20131;-29
2022/07/29 01:07:26;;;;;;;4.32;1.70;;;14.00;1.00;;;;;;5053218;28;20045;-29
2022/07/29 01:09:53;;;;;;;3.47;1.52;;;14.10;1.00;;;;;;5054692;28;20056;-28
2022/07/29 01:12:25;;;;;;;5.32;1.48;;;14.00;1.00;;;;;;5056574;28;20057;-28
2022/07/29 01:14:53;;;;;;;2.38;1.40;;;14.10;1.00;;;;;;5053693;28;20060;-29
2022/07/29 01:17:27;;;;;;;2.55;1.35;;;14.10;1.00;;;;;;5053966;28;20520;-28
2022/07/29 01:20:02;;;;;;;5.72;1.55;;;14.10;1.00;;;;;;5055141;28;20051;-28
2022/07/29 01:22:36;;;;;;;4.38;1.70;;;14.10;1.00;;;;;;5055115;28;20045;-28
2022/07/29 01:25:25;;;;;;;4.50;1.70;;;14.10;1.00;;;;;;5053699;28;20045;-28
2022/07/29 01:28:11;;;;;;;7.20;1.95;;;14.10;1.00;;;;;;5054692;28;20520;-28
2022/07/29 01:30:40;;;;;;;4.68;2.20;;;14.10;1.00;;;;;;5036626;28;20421;-30
2022/07/29 01:33:48;;;;;;;5.78;2.08;;;14.10;1.00;;;;;;5054341;28;20041;-28
2022/07/29 01:36:04;;;;;;;3.05;1.60;;;14.10;1.00;;;;;;5054552;28;20141;-28
2022/07/29 01:38:30;;;;;;;3.08;1.60;;;14.20;1.00;;;;;;5053913;28;20060;-29
2022/07/29 01:41:06;;;;;;;5.80;1.85;;;14.10;1.00;;;;;;5054576;28;20041;-28
2022/07/29 01:44:11;;;;;;;5.60;1.65;;;14.10;1.00;;;;;;5052960;28;20501;-28
2022/07/29 01:46:41;;;;;;;1.85;1.40;;;14.10;10.30;;;;;;5057407;28;20146;-28
2022/07/29 01:49:13;;;;;;;5.43;1.90;;;14.10;1.00;;;;;;5054222;28;20045;-28
2022/07/29 01:51:52;;;;;;;3.70;1.33;;;14.00;1.00;;;;;;5053693;28;20151;-28
2022/07/29 01:54:42;;;;;;;3.35;1.63;;;14.00;1.00;;;;;;5043718;28;20049;-28
2022/07/29 01:57:11;;;;;;;5.18;1.63;;;14.00;13.20;;;;;;5053607;28;20048;-29
2022/07/29 01:59:38;;;;;;;3.10;1.52;;;13.90;1.00;;;;;;5053415;28;20080;-28
2022/07/29 02:02:08;;;;;;;9.32;2.85;;;13.90;1.00;;;;;;5052561;28;20520;-29
2022/07/29 02:04:36;;;;;;;5.25;2.03;;;13.90;1.00;;;;;;5051153;28;20044;-30
2022/07/29 02:07:05;;;;;;;3.88;1.85;;;13.90;1.00;;;;;;5053195;28;20100;-28
2022/07/29 02:09:34;;;;;;;4.25;1.60;;;13.90;1.00;;;;;;5056438;28;20491;-29
2022/07/29 02:12:03;;;;;;;4.22;1.80;;;14.00;1.00;;;;;;5053245;28;20153;-28
2022/07/29 02:14:33;;;;;;;5.47;1.95;;;14.00;1.00;;;;;;5054192;28;20120;-29
2022/07/29 02:17:01;;;;;;;5.15;1.90;;;14.00;1.00;;;;;;5052679;28;20563;-28
2022/07/29 02:19:28;;;;;;;5.38;1.75;;;14.00;1.00;;;;;;5053345;28;20043;-29
2022/07/29 02:21:57;;;;;;;4.32;1.80;;;14.10;1.00;;;;;;5053402;28;20045;-29
2022/07/29 02:24:26;;;;;;;4.38;1.90;;;14.10;1.00;;;;;;5054579;28;20059;-28
2022/07/29 02:26:54;;;;;;;4.00;1.77;;;14.10;1.00;;;;;;5052916;28;20052;-28
2022/07/29 02:29:24;;;;;;;3.08;1.70;;;14.10;1.00;;;;;;5052808;28;20513;-28
2022/07/29 02:31:51;;;;;;;3.92;1.55;;;14.10;1.00;;;;;;5053192;28;20044;-28
2022/07/29 02:34:19;;;;;;;4.43;1.67;;;14.10;1.00;;;;;;5054202;28;20127;-29
2022/07/29 02:36:45;;;;;;;4.43;1.85;;;14.20;1.00;;;;;;5052855;28;20088;-28
2022/07/29 02:39:14;;;;;;;3.97;1.65;;;14.20;1.00;;;;;;5054670;28;20115;-28
2022/07/29 02:41:55;;;;;;;4.05;1.90;;;14.20;1.00;;;;;;5051998;28;20060;-28
2022/07/29 02:44:24;;;;;;;3.92;1.75;;;14.20;1.00;;;;;;5052919;28;20063;-29
2022/07/29 02:47:18;;;;;;;2.95;1.58;;;14.20;1.00;;;;;;5052528;28;20537;-28
2022/07/29 02:49:52;;;;;;;8.13;1.90;;;14.20;1.00;;;;;;5052093;28;20080;-28
2022/07/29 02:52:39;;;;;;;3.88;1.55;;;14.20;1.00;;;;;;5054727;28;20091;-28
2022/07/29 02:55:22;;;;;;;4.50;1.33;;;14.20;1.00;;;;;;5053792;28;20099;-28
2022/07/29 02:57:59;;;;;;;3.33;1.30;;;14.10;1.00;;;;;;5052852;28;20041;-28
2022/07/29 03:00:28;;;;;;;5.15;1.40;;;14.10;1.00;;;;;;5053648;28;20491;-29
2022/07/29 03:02:56;;;;;;;3.55;1.48;;;14.10;1.00;;;;;;5052115;28;20041;-28
2022/07/29 03:05:23;;;;;;;5.28;1.48;;;14.10;1.00;;;;;;5051471;28;20044;-28
2022/07/29 03:08:05;;;;;;;6.10;1.58;;;14.10;1.00;;;;;;5054625;28;20103;-29
2022/07/29 03:10:31;;;;;;;3.72;1.40;;;14.10;1.00;;;;;;5054152;28;20111;-28
2022/07/29 03:12:58;;;;;;;4.40;1.40;;;14.10;1.00;;;;;;5052814;28;20037;-28
2022/07/29 03:15:25;;;;;;;3.38;1.40;;;14.10;1.00;;;;;;5052685;28;20996;-28
2022/07/29 03:17:52;;;;;;;3.75;1.27;;;14.00;1.00;;;;;;5053246;28;20056;-28
2022/07/29 03:20:18;;;;;;;6.22;1.92;;;14.00;1.00;;;;;;5054293;28;20045;-28
2022/07/29 03:22:46;;;;;;;5.22;1.65;;;14.00;1.00;;;;;;5054334;28;20045;-29
2022/07/29 03:25:14;;;;;;;3.08;1.40;;;14.00;1.00;;;;;;5071976;28;20056;-28
2022/07/29 03:27:41;;;;;;;6.53;1.25;;;14.00;1.00;;;;;;5056988;28;20048;-29
2022/07/29 03:30:07;;;;;;;6.55;1.83;;;14.00;1.00;;;;;;5038879;28;20095;-28
2022/07/29 03:32:34;;;;;;;4.35;1.30;;;14.00;1.00;;;;;;5055003;28;20072;-29
2022/07/29 03:35:00;;;;;;;2.83;1.20;;;14.00;1.00;;;;;;5055857;28;20052;-28
2022/07/29 03:37:26;;;;;;;5.20;1.45;;;14.00;1.00;;;;;;5055409;28;20115;-28
2022/07/29 03:39:53;;;;;;;3.55;1.50;;;14.00;1.00;;;;;;5055640;28;20502;-28
2022/07/29 03:42:23;;;;;;;6.03;1.83;;;14.00;1.00;;;;;;5054933;28;20041;-28
2022/07/29 03:44:51;;;;;;;6.35;1.80;;;14.00;1.00;;;;;;5055873;28;20045;-28
2022/07/29 03:47:20;;;;;;;5.65;1.33;;;14.00;1.00;;;;;;5056255;28;20048;-28
2022/07/29 03:49:49;;;;;;;3.15;1.42;;;14.00;1.00;;;;;;5055862;28;20080;-28
2022/07/29 03:52:16;;;;;;;3.97;1.63;;;14.10;1.00;;;;;;5039869;28;20410;-28
2022/07/29 03:54:41;;;;;;;3.80;1.23;;;14.10;1.00;;;;;;5056013;28;20060;-29
2022/07/29 03:57:10;;;;;;;5.28;1.70;;;14.10;1.00;;;;;;5056766;28;20044;-28
2022/07/29 03:59:37;;;;;;;2.40;1.40;;;14.10;99.90;;;;;;5054724;28;20136;-29
2022/07/29 04:02:05;;;;;;;3.42;1.42;;;14.10;99.90;;;;;;5038499;28;20045;-29
2022/07/29 04:04:34;;;;;;;4.90;1.40;;;14.10;99.90;;;;;;5054452;28;20052;-29
2022/07/29 04:07:00;;;;;;;6.57;1.52;;;14.20;99.90;;;;;;5058739;28;20048;-28
2022/07/29 04:09:26;;;;;;;5.38;1.30;;;14.20;99.90;;;;;;5058611;28;20384;-29
2022/07/29 04:11:52;;;;;;;3.28;1.40;;;14.20;99.90;;;;;;5056070;28;20538;-29
2022/07/29 04:14:18;;;;;;;6.40;1.50;;;14.20;99.90;;;;;;5056169;28;20047;-28
2022/07/29 04:16:44;;;;;;;3.47;1.60;;;14.20;99.90;;;;;;5056784;28;20116;-29
2022/07/29 04:19:10;;;;;;;3.60;1.23;;;14.20;99.90;;;;;;5056062;28;20450;-28
2022/07/29 04:21:39;;;;;;;3.90;1.63;;;14.20;99.90;;;;;;5037580;28;20044;-28
2022/07/29 04:24:06;;;;;;;4.45;1.75;;;14.30;99.90;;;;;;5054528;28;20049;-28
2022/07/29 04:26:31;;;;;;;7.78;1.40;;;14.30;99.90;;;;;;5054792;28;20087;-29
2022/07/29 04:28:57;;;;;;;3.40;1.17;;;14.30;99.90;;;;;;5056179;28;20103;-28
2022/07/29 04:31:23;;;;;;;4.38;1.50;;;14.30;99.90;;;;;;5052590;28;20048;-28
2022/07/29 04:33:48;;;;;;;4.55;1.38;;;14.30;99.90;;;;;;5055587;28;20053;-28
2022/07/29 04:36:14;;;;;;;4.18;1.30;;;14.30;99.90;;;;;;5036852;28;20548;-28
2022/07/29 04:38:40;;;;;;;4.70;1.42;;;14.30;99.90;;;;;;5058524;28;20056;-28
2022/07/29 04:41:08;;;;;;;3.65;1.08;;;14.40;99.90;;;;;;5055036;28;20056;-28
2022/07/29 04:43:37;;;;;;;5.45;1.05;;;14.40;99.90;;;;;;5054837;28;20051;-28
2022/07/29 04:46:03;;;;;;;5.43;1.13;;;14.40;99.90;;;;;;5055558;28;20040;-28
2022/07/29 04:48:29;;;;;;;5.85;1.02;;;14.40;99.90;;;;;;5056358;28;20119;-28
2022/07/29 04:50:56;;;;;;;4.65;1.20;;;14.50;99.90;;;;;;5053608;28;20098;-29
2022/07/29 04:53:22;;;;;;;4.28;1.10;;;14.50;99.90;;;;;;5054659;28;20132;-30
2022/07/29 04:55:48;;;;;;;6.05;1.30;;;14.60;99.90;;;;;;5053566;28;20120;-28
2022/07/29 04:58:14;;;;;;;4.22;1.25;;;14.60;99.90;;;;;;5053460;28;20044;-31
2022/07/29 05:00:40;;;;;;;2.53;0.73;;;14.60;99.90;;;;;;5054410;28;20036;-29
2022/07/29 05:03:06;;;;;;;3.08;1.08;;;14.70;99.90;;;;;;5053757;28;20115;-30
2022/07/29 05:05:31;;;;;;;2.33;0.98;;;14.80;81.10;;;;;;5054597;28;20506;-27
2022/07/29 05:07:57;;;;;;;3.70;1.02;;;14.80;57.40;;;;;;5055354;28;20061;-27
2022/07/29 05:10:23;;;;;;;6.30;1.10;;;14.90;36.50;;;;;;5056091;28;20052;-27
2022/07/29 05:12:49;;;;;;;4.40;1.10;;;14.90;18.90;;;;;;5053896;28;20064;-29
2022/07/29 05:15:14;;;;;;;3.42;0.90;;;15.00;1.00;;;;;;5054771;28;20041;-28
2022/07/29 05:17:40;;;;;;;4.72;1.23;;;15.00;1.00;;;;;;5053922;28;20053;-28
2022/07/29 05:20:07;;;;;;;8.55;1.40;;;15.10;1.00;;;;;;5054075;28;20041;-28
2022/07/29 05:22:32;;;;;;;2.90;0.80;;;15.20;1.00;;;;;;5054871;28;20036;-28
2022/07/29 05:24:58;;;;;;;4.38;1.05;;;15.20;1.00;;;;;;5054117;28;20505;-28
2022/07/29 05:27:24;;;;;;;5.10;1.08;;;15.30;1.00;;;;;;5054178;28;20101;-27
2022/07/29 05:29:49;;;;;;;8.18;1.73;;;15.30;1.00;;;;;;5053635;28;20497;-28
2022/07/29 05:32:15;;;;;;;4.35;1.08;;;15.40;1.00;;;;;;5054753;28;20601;-28
2022/07/29 05:34:41;;;;;;;4.43;1.30;;;15.50;1.00;;;;;;5053695;28;20072;-28
2022/07/29 05:37:07;;;;;;;4.25;1.13;;;15.60;1.00;;;;;;5052903;28;20040;-27
2022/07/29 05:39:33;;;;;;;5.22;1.15;;;15.70;1.00;;;;;;5054002;28;20380;-28
2022/07/29 05:41:59;;;;;;;5.28;1.10;;;15.80;1.00;;;;;;5054105;28;20045;-27
2022/07/29 05:44:24;;;;;;;3.85;1.33;;;15.90;1.00;;;;;;5053689;28;20041;-28
2022/07/29 05:46:50;;;;;;;9.82;3.08;;;16.00;1.00;;;;;;5035961;28;20442;-27
2022/07/29 05:49:16;;;;;;;3.30;1.50;;;16.00;1.00;;;;;;5052116;28;20076;-28
2022/07/29 05:51:41;;;;;;;6.88;1.20;;;16.10;1.00;;;;;;5053714;28;20076;-27
2022/07/29 05:54:07;;;;;;;4.22;1.17;;;16.20;1.00;;;;;;5053878;28;20077;-28
2022/07/29 05:56:33;;;;;;;5.05;1.80;;;16.20;1.00;;;;;;5053642;28;20049;-27
2022/07/29 05:58:59;;;;;;;2.42;0.93;;;16.30;1.00;;;;;;5052810;28;20376;-27
2022/07/29 06:01:24;;;;;;;4.68;1.20;;;16.30;1.00;;;;;;5054191;28;20049;-28
2022/07/29 06:03:50;;;;;;;4.22;1.45;;;16.30;1.00;;;;;;5053487;28;20088;-27
2022/07/29 06:06:16;;;;;;;2.13;0.93;;;16.30;1.00;;;;;;5053804;28;20045;-28
2022/07/29 06:08:41;;;;;;;2.30;1.02;;;16.30;99.90;;;;;;5053168;28;20049;-27
2022/07/29 06:11:08;;;;;;;3.10;0.95;;;16.50;99.90;;;;;;5055627;28;20384;-28
2022/07/29 06:13:34;;;;;;;4.22;1.15;;;16.60;99.90;;;;;;5054059;28;20045;-27
2022/07/29 06:16:00;;;;;;;8.30;1.27;;;16.90;99.90;;;;;;5051286;28;20041;-28
2022/07/29 06:18:25;;;;;;;8.10;1.63;;;17.20;99.90;;;;;;5053915;28;20045;-27
2022/07/29 06:20:51;;;;;;;5.95;1.95;;;17.30;99.90;;;;;;5035276;28;20102;-28
2022/07/29 06:23:18;;;;;;;5.68;1.27;;;17.50;99.90;;;;;;5054170;28;20048;-28
2022/07/29 06:25:44;;;;;;;5.68;1.63;;;17.60;99.90;;;;;;5051345;28;20095;-28
2022/07/29 06:28:10;;;;;;;5.07;3.05;;;17.50;99.90;;;;;;5051891;28;20541;-28
2022/07/29 06:30:36;;;;;;;4.97;1.30;;;17.50;99.90;;;;;;5044308;28;20427;-28
2022/07/29 06:33:02;;;;;;;5.78;1.50;;;17.40;30.70;;;;;;5041203;28;20487;-28
2022/07/29 06:35:29;;;;;;;4.85;1.40;;;17.40;99.90;;;;;;5042331;28;20402;-28
2022/07/29 06:37:54;;;;;;;3.05;1.17;;;17.40;99.90;;;;;;5056657;28;20041;-28
2022/07/29 06:43:04;;;;;;;7.50;2.05;;;17.60;99.90;;;;;;5052297;28;20051;-28
2022/07/29 06:45:34;;;;;;;5.50;1.73;;;17.90;99.90;;;;;;5053398;28;20045;-28
2022/07/29 06:47:59;;;;;;;3.95;1.25;;;18.30;99.90;;;;;;5053420;28;20055;-29
2022/07/29 06:50:25;;;;;;;6.07;1.58;;;18.50;1.00;;;;;;5068102;28;20041;-28
2022/07/29 06:52:51;;;;;;;5.85;1.20;;;18.80;1.00;;;;;;5053407;28;20044;-28
2022/07/29 06:55:19;;;;;;;6.60;1.42;;;18.90;1.00;;;;;;5056765;28;20507;-29
2022/07/29 06:57:46;;;;;;;5.03;1.58;;;19.00;1.00;;;;;;5057471;28;20106;-28
2022/07/29 07:00:12;;;;;;;4.07;1.27;;;18.90;1.00;;;;;;5057486;28;20102;-27
2022/07/29 07:02:38;;;;;;;3.75;1.00;;;18.70;1.00;;;;;;5057381;28;20052;-28
2022/07/29 07:05:05;;;;;;;4.85;1.23;;;18.60;1.00;;;;;;5057369;28;20041;-28
2022/07/29 07:07:31;;;;;;;5.30;1.55;;;18.50;1.00;;;;;;5056274;28;20096;-28
2022/07/29 07:09:57;;;;;;;5.68;1.33;;;18.40;1.00;;;;;;5057910;28;20088;-28
2022/07/29 07:12:23;;;;;;;3.47;1.20;;;18.30;1.00;;;;;;5056172;28;20041;-29
2022/07/29 07:14:48;;;;;;;5.53;1.45;;;18.40;1.00;;;;;;5046497;28;20042;-29
2022/07/29 07:17:14;;;;;;;6.43;1.27;;;18.40;1.00;;;;;;5037335;28;20046;-28
2022/07/29 07:19:40;;;;;;;5.53;1.42;;;18.50;1.00;;;;;;5037229;28;20049;-28
2022/07/29 07:22:05;;;;;;;2.80;1.20;;;18.50;1.00;;;;;;5038004;28;20085;-28
2022/07/29 07:24:31;;;;;;;2.92;1.10;;;18.60;1.00;;;;;;5046463;28;20056;-28
2022/07/29 07:26:57;;;;;;;4.07;1.20;;;18.70;99.90;;;;;;5056992;28;20052;-28
2022/07/29 07:29:23;;;;;;;3.67;1.05;;;18.70;99.90;;;;;;5057041;28;20055;-28
2022/07/29 07:31:48;;;;;;;5.55;1.13;;;18.60;99.90;;;;;;5057140;28;20045;-28
2022/07/29 07:34:14;;;;;;;5.47;1.08;;;18.70;99.90;;;;;;5057015;28;20048;-28
2022/07/29 07:36:40;;;;;;;5.72;1.30;;;18.80;99.90;;;;;;5056875;28;20076;-28
2022/07/29 07:39:06;;;;;;;7.05;1.25;;;18.90;1.00;;;;;;5055770;28;20119;-28
2022/07/29 07:41:31;;;;;;;8.32;2.58;;;19.10;99.90;;;;;;5057576;28;20119;-28
2022/07/29 07:43:57;;;;;;;7.22;3.00;;;19.20;99.90;;;;;;5056811;28;20486;-28
2022/07/29 07:46:23;;;;;;;9.40;1.98;;;19.20;99.90;;;;;;5056733;28;20059;-28
2022/07/29 07:48:52;;;;;;;4.57;1.38;;;19.40;99.90;;;;;;5056068;28;20459;-28
2022/07/29 07:51:18;;;;;;;5.97;1.48;;;19.40;99.90;;;;;;5049266;28;20045;-28
2022/07/29 07:53:44;;;;;;;6.97;1.23;;;19.50;99.90;;;;;;5057478;28;20045;-28
2022/07/29 07:56:10;;;;;;;5.65;1.23;;;19.60;99.90;;;;;;5041435;28;20123;-28
2022/07/29 07:58:36;;;;;;;3.60;1.25;;;19.70;99.90;;;;;;5042935;28;20495;-27
2022/07/29 08:01:02;;;;;;;6.47;1.65;;;19.80;99.90;;;;;;5060449;28;20040;-28
2022/07/29 08:03:27;;;;;;;4.32;1.50;;;19.80;94.00;;;;;;5056317;28;20041;-28
2022/07/29 08:05:54;;;;;;;9.32;2.08;;;19.80;99.90;;;;;;5054875;28;20487;-29
2022/07/29 08:08:19;;;;;;;4.07;1.25;;;20.00;99.90;;;;;;5055419;28;20052;-28
2022/07/29 08:10:55;;;;;;;6.15;1.50;;;20.10;99.90;;;;;;5055947;28;20067;-28
2022/07/29 08:13:23;;;;;;;5.90;1.50;;;20.10;15.80;;;;;;5054134;28;20096;-28
2022/07/29 08:15:57;;;;;;;10.20;1.40;;;20.00;1.00;;;;;;5052190;28;20048;-28
2022/07/29 08:18:24;;;;;;;2.42;1.40;;;19.90;97.50;;;;;;5053732;28;20052;-28
2022/07/29 08:20:50;;;;;;;6.60;1.42;;;20.10;99.90;;;;;;5055075;28;20052;-28
2022/07/29 08:23:23;;;;;;;7.95;1.60;;;20.20;88.60;;;;;;5053622;28;20049;-27
2022/07/29 08:25:49;;;;;;;;;;;20.30;12.30;;;;;;5052328;28;20199;-28
2022/07/29 08:28:15;;;;;;;4.75;1.30;;;20.30;1.00;;;;;;5054901;28;19924;-29
2022/07/29 08:30:41;;;;;;;7.43;1.25;;;20.40;17.30;;;;;;5055455;28;20055;-28
2022/07/29 08:33:09;;;;;;;5.53;1.40;;;20.50;1.00;;;;;;5056351;28;20041;-28
2022/07/29 08:35:35;;;;;;;7.50;1.42;;;20.60;1.00;;;;;;5035217;28;20041;-28
2022/07/29 08:38:00;;;;;;;7.07;1.60;;;20.50;1.00;;;;;;5057338;28;20055;-28
2022/07/29 08:40:26;;;;;;;8.93;2.53;;;20.50;1.00;;;;;;5054635;28;20040;-28
2022/07/29 08:42:54;;;;;;;5.50;1.85;;;20.60;1.00;;;;;;5054504;28;20045;-28
2022/07/29 08:45:21;;;;;;;4.40;1.48;;;20.60;1.00;;;;;;5054436;28;20049;-28
2022/07/29 08:47:47;;;;;;;5.78;1.10;;;20.60;1.00;;;;;;5055600;28;20053;-28
2022/07/29 08:50:13;;;;;;;6.80;1.75;;;20.60;1.00;;;;;;5053515;28;20097;-28
2022/07/29 08:52:40;;;;;;;5.63;1.25;;;20.60;1.00;;;;;;5055484;28;20049;-27
2022/07/29 08:55:08;;;;;;;5.10;1.25;;;20.60;99.90;;;;;;5054297;28;20041;-28
2022/07/29 08:57:38;;;;;;;4.47;1.77;;;20.80;99.90;;;;;;5055293;28;20048;-27
2022/07/29 09:00:05;;;;;;;3.33;1.50;;;20.90;99.90;;;;;;5055421;28;20091;-28
2022/07/29 09:02:37;;;;;;;4.80;1.30;;;20.90;99.90;;;;;;5037472;28;20445;-28
2022/07/29 09:05:04;;;;;;;6.95;1.50;;;20.90;99.90;;;;;;5054054;28;20179;-28
2022/07/29 09:07:30;;;;;;;3.38;1.23;;;20.90;99.90;;;;;;5054227;28;20194;-28
2022/07/29 09:09:56;;;;;;;6.05;1.70;;;21.00;99.90;;;;;;5055552;28;20538;-28
2022/07/29 09:12:26;;;;;;;6.60;1.95;;;21.10;99.90;;;;;;5053817;28;20399;-28
2022/07/29 09:14:55;;;;;;;5.93;1.30;;;21.10;47.60;;;;;;5055635;28;20052;-29
2022/07/29 09:17:43;;;;;;;6.13;1.67;;;21.10;33.50;;;;;;5053274;28;20056;-28
2022/07/29 09:20:11;;;;;;;5.55;2.90;;;21.20;1.00;;;;;;5053720;28;20045;-28
2022/07/29 09:22:37;;;;;;;6.65;3.22;;;21.20;1.00;;;;;;5054098;28;20071;-28
2022/07/29 09:25:03;;;;;;;7.18;2.60;;;21.20;1.00;;;;;;5053669;28;20479;-28
2022/07/29 09:27:29;;;;;;;4.90;2.00;;;21.10;1.00;;;;;;5053289;28;20483;-28
2022/07/29 09:30:12;;;;;;;7.05;2.05;;;21.00;1.00;;;;;;5053598;28;20072;-28
2022/07/29 09:33:01;;;;;;;4.25;1.95;;;21.10;1.00;;;;;;5055050;28;20045;-28
2022/07/29 09:35:28;;;;;;;3.67;1.65;;;21.20;1.00;;;;;;5053224;28;20491;-28
2022/07/29 09:37:54;;;;;;;4.75;1.70;;;21.30;1.00;;;;;;5052896;28;20080;-28
2022/07/29 09:40:27;;;;;;;3.33;1.65;;;21.30;1.00;;;;;;5054552;28;20145;-28
2022/07/29 09:42:56;;;;;;;4.65;1.77;;;21.50;1.00;;;;;;5054523;28;20041;-28
2022/07/29 09:45:37;;;;;;;5.80;1.60;;;21.60;1.00;;;;;;5053280;28;20406;-28
2022/07/29 09:48:23;;;;;;;6.65;1.80;;;21.60;99.90;;;;;;5052163;28;20041;-28
2022/07/29 09:50:50;;;;;;;5.82;1.83;;;21.60;99.90;;;;;;5052270;28;20053;-29
2022/07/29 09:53:36;;;;;;;10.18;2.03;;;21.80;99.90;;;;;;5054168;28;20052;-28
2022/07/29 09:56:05;;;;;;;5.72;2.70;;;21.80;99.90;;;;;;5054288;28;20088;-28
2022/07/29 09:58:33;;;;;;;5.38;1.92;;;21.90;1.00;;;;;;5055009;28;20056;-28
2022/07/29 10:00:59;;;;;;;6.55;2.17;;;22.10;1.00;;;;;;5070708;28;20045;-28
2022/07/29 10:03:25;;;;;;;8.77;2.38;;;22.20;1.00;;;;;;5053087;28;20052;-28
2022/07/29 10:06:10;;;;;;;11.65;2.15;;;22.30;1.00;;;;;;5054315;28;20506;-28
2022/07/29 10:08:36;;;;;;;7.43;2.03;;;22.20;99.90;;;;;;5036075;28;20507;-28
2022/07/29 10:11:18;;;;;;;4.50;1.83;;;22.00;99.90;;;;;;5053013;28;20479;-28
2022/07/29 10:13:48;;;;;;;7.28;1.80;;;22.00;99.90;;;;;;5051648;28;20048;-28
2022/07/29 10:16:20;;;;;;;5.32;1.80;;;21.80;1.00;;;;;;5053925;28;20049;-28
2022/07/29 10:18:46;;;;;;;5.50;1.52;;;21.70;1.00;;;;;;5053680;28;20546;-28
2022/07/29 10:21:15;;;;;;;5.38;2.00;;;21.80;1.00;;;;;;5036323;28;20128;-28
2022/07/29 10:23:42;;;;;;;5.55;1.90;;;21.90;1.00;;;;;;5051627;28;20509;-28
2022/07/29 10:26:09;;;;;;;7.90;1.90;;;21.80;1.00;;;;;;5054617;28;20045;-28
2022/07/29 10:28:38;;;;;;;8.40;2.05;;;21.80;1.00;;;;;;5053663;28;20411;-28
2022/07/29 10:31:07;;;;;;;4.82;1.42;;;22.00;1.00;;;;;;5053776;28;20524;-28
2022/07/29 10:34:04;;;;;;;5.85;1.98;;;22.10;99.90;;;;;;5047735;28;20098;-28
2022/07/29 10:37:02;;;;;;;4.38;1.95;;;22.20;99.90;;;;;;5034389;28;20399;-28
2022/07/29 10:39:42;;;;;;;5.63;1.90;;;22.40;99.90;;;;;;5031526;28;20053;-28
2022/07/29 10:42:21;;;;;;;5.30;1.90;;;22.70;99.90;;;;;;5034553;28;20371;-28
2022/07/29 10:44:47;;;;;;;10.00;1.63;;;22.80;99.90;;;;;;5029384;28;20045;-29
2022/07/29 10:47:21;;;;;;;8.25;1.90;;;22.90;99.90;;;;;;5053530;28;20049;-28
2022/07/29 10:50:01;;;;;;;11.45;4.05;;;22.90;99.90;;;;;;5061080;28;20464;-28
2022/07/29 10:52:49;;;;;;;5.70;2.10;;;23.00;99.90;;;;;;5054170;28;20043;-28
2022/07/29 10:55:33;;;;;;;5.15;2.45;;;23.00;99.90;;;;;;5053498;28;20048;-28
2022/07/29 10:58:13;;;;;;;7.07;2.03;;;22.90;99.90;;;;;;5043495;28;20046;-28
2022/07/29 11:00:44;;;;;;;5.90;2.10;;;22.90;99.90;;;;;;5044740;28;20049;-28
2022/07/29 11:03:45;;;;;;;7.95;1.83;;;22.70;99.90;;;;;;5053729;28;20077;-28
2022/07/29 11:06:11;;;;;;;7.05;2.00;;;22.70;99.90;;;;;;5047293;28;20506;-28
2022/07/29 11:08:37;;;;;;;6.47;1.80;;;22.80;99.90;;;;;;5051975;28;20140;-28
2022/07/29 11:11:25;;;;;;;8.43;2.40;;;22.90;99.90;;;;;;5053339;28;20156;-29
2022/07/29 11:13:54;;;;;;;6.72;2.25;;;23.20;99.90;;;;;;5053352;28;20045;-28
2022/07/29 11:16:26;;;;;;;5.57;2.28;;;23.30;99.90;;;;;;5053324;28;20475;-28
2022/07/29 11:19:10;;;;;;;6.13;1.67;;;23.70;99.90;;;;;;5052413;28;20231;-29
2022/07/29 11:21:39;;;;;;;7.35;1.88;;;24.00;1.00;;;;;;5051975;28;20048;-28
2022/07/29 11:24:35;;;;;;;5.90;2.05;;;24.30;1.00;;;;;;5052721;28;20395;-28
2022/07/29 11:27:16;;;;;;;6.55;2.00;;;24.70;99.90;;;;;;5053297;28;20479;-28
2022/07/29 11:29:49;;;;;;;3.78;1.73;;;24.80;99.90;;;;;;5053187;28;20053;-28
2022/07/29 11:32:19;;;;;;;4.72;1.88;;;24.70;99.90;;;;;;5053199;28;20127;-30
2022/07/29 11:34:50;;;;;;;7.18;2.20;;;24.90;99.90;;;;;;5052761;28;20420;-28
2022/07/29 11:37:18;;;;;;;6.88;1.92;;;25.00;99.90;;;;;;5053219;28;20128;-28
2022/07/29 11:40:08;;;;;;;6.68;1.98;;;24.70;99.90;;;;;;5053069;28;20056;-28
2022/07/29 11:42:37;;;;;;;4.97;1.60;;;24.60;99.90;;;;;;5056836;28;20045;-29
2022/07/29 11:45:14;;;;;;;6.90;1.90;;;24.40;99.90;;;;;;5057053;28;20110;-29
2022/07/29 11:47:47;;;;;;;6.57;2.67;;;24.40;99.90;;;;;;5056729;28;20049;-28
2022/07/29 11:50:36;;;;;;;7.90;3.55;;;24.30;99.90;;;;;;5053876;28;20076;-28
2022/07/29 11:53:13;;;;;;;4.32;1.55;;;24.30;99.90;;;;;;5044685;28;20052;-29
2022/07/29 11:55:44;;;;;;;7.07;1.80;;;24.20;99.90;;;;;;5055703;28;20460;-28
2022/07/29 11:58:10;;;;;;;5.05;2.20;;;24.30;99.90;;;;;;5056627;28;20068;-29
2022/07/29 12:00:39;;;;;;;7.35;2.05;;;24.40;99.90;;;;;;5056445;28;20478;-28
2022/07/29 12:03:23;;;;;;;8.88;2.40;;;24.30;99.90;;;;;;5057116;28;20120;-28
2022/07/29 12:05:48;;;;;;;7.25;2.30;;;24.10;99.90;;;;;;5053341;28;20545;-28
2022/07/29 12:08:25;;;;;;;4.75;1.92;;;24.10;99.90;;;;;;5054765;28;20060;-28
2022/07/29 12:10:56;;;;;;;5.93;2.35;;;24.10;99.90;;;;;;5054522;28;20080;-29
2022/07/29 12:13:24;;;;;;;6.50;1.90;;;24.00;99.90;;;;;;5055556;28;20037;-28
2022/07/29 12:16:02;;;;;;;8.48;2.85;;;24.00;99.90;;;;;;5055340;28;20049;-28
2022/07/29 12:18:30;;;;;;;5.78;1.95;;;24.00;99.90;;;;;;5056447;28;20459;-27
2022/07/29 12:21:03;;;;;;;4.93;2.25;;;24.40;99.90;;;;;;5037413;28;20049;-30
2022/07/29 12:23:30;;;;;;;7.28;1.80;;;25.10;99.90;;;;;;5037458;28;20166;-28
2022/07/29 12:25:57;;;;;;;4.97;2.00;;;25.80;99.90;;;;;;5054869;28;20049;-28
2022/07/29 12:28:27;;;;;;;5.03;2.17;;;26.40;1.00;;;;;;5055857;28;20056;-29
2022/07/29 12:30:54;;;;;;;4.75;2.13;;;26.40;1.00;;;;;;5055138;28;20106;-29
2022/07/29 12:33:26;;;;;;;6.97;2.30;;;26.30;1.00;;;;;;5052429;28;20363;-28
2022/07/29 12:35:57;;;;;;;3.53;2.10;;;26.40;1.00;;;;;;5053778;28;20095;-28
2022/07/29 12:38:23;;;;;;;3.53;1.80;;;26.60;1.00;;;;;;5055218;28;20137;-29
2022/07/29 12:40:50;;;;;;;8.73;4.10;;;26.80;1.00;;;;;;5053816;28;20323;-28
2022/07/29 12:43:21;;;;;;;5.68;2.70;;;26.90;1.00;;;;;;5046463;28;20037;-28
2022/07/29 12:45:52;;;;;;;5.55;1.80;;;27.00;99.90;;;;;;5053864;28;20045;-30
2022/07/29 12:48:38;;;;;;;7.93;1.90;;;27.30;99.90;;;;;;5056239;28;20364;-29
2022/07/29 12:51:07;;;;;;;5.97;2.08;;;28.00;99.90;;;;;;5054785;28;20049;-29
2022/07/29 12:53:33;;;;;;;4.32;1.48;;;28.60;99.90;;;;;;5053354;28;20091;-29
2022/07/29 12:56:01;;;;;;;4.82;1.60;;;29.40;99.90;;;;;;5054385;28;20059;-29
2022/07/29 12:58:43;;;;;;;3.78;1.10;;;29.90;99.90;;;;;;5055425;28;20052;-29
2022/07/29 13:01:15;;;;;;;5.90;1.75;;;30.10;99.90;;;;;;5054413;28;20487;-29
2022/07/29 13:03:53;;;;;;;7.45;1.80;;;30.10;99.90;;;;;;5054430;28;20052;-28
2022/07/29 13:06:35;;;;;;;6.50;1.45;;;30.50;99.90;;;;;;5050480;28;20513;-29
2022/07/29 13:09:10;;;;;;;4.47;2.00;;;30.70;99.90;;;;;;5055309;28;20061;-27
2022/07/29 13:11:42;;;;;;;5.60;1.60;;;30.90;99.90;;;;;;5056056;28;20384;-27